sensor_id;sensor_type;location;lat;lon;timestamp;pressure;altitude;pressure_sealevel;temperature;humidity
22572;BME280;11452;53.368;14.658;2022-09-14T00:02:21;100031.65;;;15.55;72.67
22572;BME280;11452;53.368;14.658;2022-09-14T00:07:26;100021.83;;;15.54;72.61
22572;BME280;11452;53.368;14.658;2022-09-14T00:12:31;100027.13;;;15.50;72.56
22572;BME280;11452;53.368;14.658;2022-09-14T00:17:37;100017.02;;;15.43;72.74
22572;BME280;11452;53.368;14.658;2022-09-14T00:22:42;100016.25;;;15.46;73.21
22572;BME280;11452;53.368;14.658;2022-09-14T00:27:48;100010.23;;;15.48;73.12
22572;BME280;11452;53.368;14.658;2022-09-14T00:32:53;100002.66;;;15.48;73.31
22572;BME280;11452;53.368;14.658;2022-09-14T00:37:59;100000.05;;;15.52;73.27
22572;BME280;11452;53.368;14.658;2022-09-14T00:43:11;100007.47;;;15.59;73.25
22572;BME280;11452;53.368;14.658;2022-09-14T00:48:13;100001.39;;;15.57;73.00
22572;BME280;11452;53.368;14.658;2022-09-14T00:53:19;99995.03;;;15.53;72.96
22572;BME280;11452;53.368;14.658;2022-09-14T00:58:24;99994.66;;;15.52;72.91
22572;BME280;11452;53.368;14.658;2022-09-14T01:03:30;99999.38;;;15.44;72.90
22572;BME280;11452;53.368;14.658;2022-09-14T01:14:36;99986.02;;;15.33;73.00
22572;BME280;11452;53.368;14.658;2022-09-14T01:25:06;99989.27;;;15.21;73.61
22572;BME280;11452;53.368;14.658;2022-09-14T01:30:10;100001.32;;;15.17;73.83
22572;BME280;11452;53.368;14.658;2022-09-14T01:35:25;99988.35;;;15.17;73.97
22572;BME280;11452;53.368;14.658;2022-09-14T01:40:32;100001.58;;;15.14;73.96
22572;BME280;11452;53.368;14.658;2022-09-14T01:45:42;99993.05;;;15.09;74.20
22572;BME280;11452;53.368;14.658;2022-09-14T01:50:50;99992.19;;;15.09;74.52
22572;BME280;11452;53.368;14.658;2022-09-14T01:56:20;99991.83;;;15.08;74.50
22572;BME280;11452;53.368;14.658;2022-09-14T02:01:10;99982.18;;;15.05;74.60
22572;BME280;11452;53.368;14.658;2022-09-14T02:06:21;99975.25;;;15.03;74.89
22572;BME280;11452;53.368;14.658;2022-09-14T02:11:25;99972.40;;;15.04;75.33
22572;BME280;11452;53.368;14.658;2022-09-14T02:16:30;99974.33;;;15.08;75.41
22572;BME280;11452;53.368;14.658;2022-09-14T02:21:36;99964.75;;;15.15;75.77
22572;BME280;11452;53.368;14.658;2022-09-14T02:26:42;99955.98;;;15.22;75.79
22572;BME280;11452;53.368;14.658;2022-09-14T02:43:05;99949.84;;;15.26;75.54
22572;BME280;11452;53.368;14.658;2022-09-14T02:48:19;99956.30;;;15.29;75.54
22572;BME280;11452;53.368;14.658;2022-09-14T02:53:34;99956.89;;;15.33;75.49
22572;BME280;11452;53.368;14.658;2022-09-14T02:58:42;99961.06;;;15.31;75.36
22572;BME280;11452;53.368;14.658;2022-09-14T03:03:47;99964.84;;;15.34;75.23
22572;BME280;11452;53.368;14.658;2022-09-14T03:08:53;99948.67;;;15.34;75.17
22572;BME280;11452;53.368;14.658;2022-09-14T03:13:58;99953.21;;;15.34;75.07
22572;BME280;11452;53.368;14.658;2022-09-14T03:19:04;99951.55;;;15.27;74.91
22572;BME280;11452;53.368;14.658;2022-09-14T03:24:10;99947.64;;;15.25;75.17
22572;BME280;11452;53.368;14.658;2022-09-14T03:29:15;99948.98;;;15.25;74.96
22572;BME280;11452;53.368;14.658;2022-09-14T03:34:20;99954.64;;;15.22;74.98
22572;BME280;11452;53.368;14.658;2022-09-14T03:39:26;99950.89;;;15.19;74.81
22572;BME280;11452;53.368;14.658;2022-09-14T03:44:32;99965.24;;;15.14;75.02
22572;BME280;11452;53.368;14.658;2022-09-14T03:49:37;99956.58;;;15.11;75.00
22572;BME280;11452;53.368;14.658;2022-09-14T03:54:43;99944.59;;;15.09;75.23
22572;BME280;11452;53.368;14.658;2022-09-14T03:59:49;99943.02;;;15.07;75.33
22572;BME280;11452;53.368;14.658;2022-09-14T04:04:55;99950.38;;;15.05;75.20
22572;BME280;11452;53.368;14.658;2022-09-14T04:10:00;99947.13;;;15.01;75.19
22572;BME280;11452;53.368;14.658;2022-09-14T04:15:07;99950.34;;;14.95;75.44
22572;BME280;11452;53.368;14.658;2022-09-14T04:20:13;99960.88;;;14.93;75.62
22572;BME280;11452;53.368;14.658;2022-09-14T04:25:19;99963.34;;;14.90;75.71
22572;BME280;11452;53.368;14.658;2022-09-14T04:30:26;99963.70;;;14.91;75.90
22572;BME280;11452;53.368;14.658;2022-09-14T04:35:31;99953.78;;;14.92;76.08
22572;BME280;11452;53.368;14.658;2022-09-14T04:40:41;99955.03;;;14.87;76.18
22572;BME280;11452;53.368;14.658;2022-09-14T04:45:46;99949.88;;;14.90;76.33
22572;BME280;11452;53.368;14.658;2022-09-14T04:50:52;99945.58;;;14.93;76.66
22572;BME280;11452;53.368;14.658;2022-09-14T04:56:02;99949.23;;;14.98;76.50
22572;BME280;11452;53.368;14.658;2022-09-14T05:01:13;99949.59;;;14.99;76.82
22572;BME280;11452;53.368;14.658;2022-09-14T05:06:21;99941.61;;;15.03;76.59
22572;BME280;11452;53.368;14.658;2022-09-14T05:11:30;99941.38;;;15.00;76.84
22572;BME280;11452;53.368;14.658;2022-09-14T05:16:37;99943.84;;;14.98;76.74
22572;BME280;11452;53.368;14.658;2022-09-14T05:21:44;99950.34;;;14.95;77.06
22572;BME280;11452;53.368;14.658;2022-09-14T05:26:51;99948.97;;;15.01;77.10
22572;BME280;11452;53.368;14.658;2022-09-14T05:31:59;99945.78;;;15.01;77.08
22572;BME280;11452;53.368;14.658;2022-09-14T05:37:04;99951.45;;;15.08;77.25
22572;BME280;11452;53.368;14.658;2022-09-14T05:42:10;99943.48;;;15.12;77.30
22572;BME280;11452;53.368;14.658;2022-09-14T05:47:15;99943.08;;;15.16;77.02
22572;BME280;11452;53.368;14.658;2022-09-14T05:52:20;99946.40;;;15.14;77.19
22572;BME280;11452;53.368;14.658;2022-09-14T05:57:26;99943.31;;;15.19;77.37
22572;BME280;11452;53.368;14.658;2022-09-14T06:02:31;99935.88;;;15.27;77.49
22572;BME280;11452;53.368;14.658;2022-09-14T06:07:37;99938.27;;;15.35;77.27
22572;BME280;11452;53.368;14.658;2022-09-14T06:12:42;99935.59;;;15.45;77.00
22572;BME280;11452;53.368;14.658;2022-09-14T06:17:48;99936.27;;;15.52;77.18
22572;BME280;11452;53.368;14.658;2022-09-14T06:22:54;99938.59;;;15.51;77.05
22572;BME280;11452;53.368;14.658;2022-09-14T06:27:59;99941.78;;;15.51;76.49
22572;BME280;11452;53.368;14.658;2022-09-14T06:33:05;99925.80;;;15.59;76.77
22572;BME280;11452;53.368;14.658;2022-09-14T06:38:11;99930.59;;;15.71;77.09
22572;BME280;11452;53.368;14.658;2022-09-14T06:43:18;99928.12;;;15.73;76.59
22572;BME280;11452;53.368;14.658;2022-09-14T06:48:24;99942.86;;;15.79;76.69
22572;BME280;11452;53.368;14.658;2022-09-14T06:53:29;99934.17;;;15.90;76.36
22572;BME280;11452;53.368;14.658;2022-09-14T06:58:35;99940.55;;;15.89;76.38
22572;BME280;11452;53.368;14.658;2022-09-14T07:03:42;99937.14;;;15.97;76.03
22572;BME280;11452;53.368;14.658;2022-09-14T07:08:49;99942.06;;;16.07;76.09
22572;BME280;11452;53.368;14.658;2022-09-14T07:13:55;99952.20;;;16.09;75.70
22572;BME280;11452;53.368;14.658;2022-09-14T07:19:08;99945.53;;;16.23;76.14
22572;BME280;11452;53.368;14.658;2022-09-14T07:24:13;99956.34;;;16.33;76.04
22572;BME280;11452;53.368;14.658;2022-09-14T07:29:19;99952.77;;;16.42;75.79
22572;BME280;11452;53.368;14.658;2022-09-14T07:34:25;99959.60;;;16.65;75.94
22572;BME280;11452;53.368;14.658;2022-09-14T07:39:30;99955.80;;;16.72;74.98
22572;BME280;11452;53.368;14.658;2022-09-14T07:44:36;99962.84;;;16.78;75.18
22572;BME280;11452;53.368;14.658;2022-09-14T07:49:42;99962.87;;;16.92;74.85
22572;BME280;11452;53.368;14.658;2022-09-14T07:54:48;99968.61;;;17.03;74.43
22572;BME280;11452;53.368;14.658;2022-09-14T07:59:53;99966.62;;;17.05;73.89
22572;BME280;11452;53.368;14.658;2022-09-14T08:05:01;99959.31;;;16.91;73.40
22572;BME280;11452;53.368;14.658;2022-09-14T08:10:07;99963.28;;;17.07;73.71
22572;BME280;11452;53.368;14.658;2022-09-14T08:15:11;99951.58;;;17.16;73.42
22572;BME280;11452;53.368;14.658;2022-09-14T08:20:16;99953.34;;;17.35;73.81
22572;BME280;11452;53.368;14.658;2022-09-14T08:25:21;99946.71;;;18.15;70.82
22572;BME280;11452;53.368;14.658;2022-09-14T08:30:26;99947.83;;;17.77;72.10
22572;BME280;11452;53.368;14.658;2022-09-14T08:35:30;99939.16;;;17.60;70.88
22572;BME280;11452;53.368;14.658;2022-09-14T08:40:44;99937.25;;;17.56;70.95
22572;BME280;11452;53.368;14.658;2022-09-14T08:45:51;99943.74;;;17.50;70.69
22572;BME280;11452;53.368;14.658;2022-09-14T08:50:56;99943.22;;;17.74;71.52
22572;BME280;11452;53.368;14.658;2022-09-14T08:56:05;99949.42;;;18.02;71.49
22572;BME280;11452;53.368;14.658;2022-09-14T09:01:47;99951.46;;;18.35;71.15
22572;BME280;11452;53.368;14.658;2022-09-14T09:12:04;99940.73;;;18.47;69.13
22572;BME280;11452;53.368;14.658;2022-09-14T09:17:13;99953.62;;;18.67;68.88
22572;BME280;11452;53.368;14.658;2022-09-14T09:22:21;99950.59;;;18.70;66.93
22572;BME280;11452;53.368;14.658;2022-09-14T09:27:27;99943.25;;;18.62;66.32
22572;BME280;11452;53.368;14.658;2022-09-14T09:32:33;99949.39;;;18.51;65.10
22572;BME280;11452;53.368;14.658;2022-09-14T09:37:59;99953.07;;;18.63;65.32
22572;BME280;11452;53.368;14.658;2022-09-14T09:43:10;99935.40;;;18.77;63.94
22572;BME280;11452;53.368;14.658;2022-09-14T09:48:19;99948.95;;;19.03;64.05
22572;BME280;11452;53.368;14.658;2022-09-14T09:53:25;99949.36;;;19.16;63.54
22572;BME280;11452;53.368;14.658;2022-09-14T09:58:37;99940.10;;;18.97;61.63
22572;BME280;11452;53.368;14.658;2022-09-14T10:03:43;99944.09;;;18.85;61.60
22572;BME280;11452;53.368;14.658;2022-09-14T10:08:53;99929.58;;;18.94;62.14
22572;BME280;11452;53.368;14.658;2022-09-14T10:14:00;99937.55;;;19.21;61.40
22572;BME280;11452;53.368;14.658;2022-09-14T10:19:21;99936.56;;;19.30;59.95
22572;BME280;11452;53.368;14.658;2022-09-14T10:24:28;99916.50;;;19.15;59.33
22572;BME280;11452;53.368;14.658;2022-09-14T10:29:41;99926.43;;;19.36;59.48
22572;BME280;11452;53.368;14.658;2022-09-14T10:34:42;99926.23;;;19.26;57.93
22572;BME280;11452;53.368;14.658;2022-09-14T10:40:02;99922.28;;;19.50;57.83
22572;BME280;11452;53.368;14.658;2022-09-14T10:45:08;99930.62;;;19.57;56.70
22572;BME280;11452;53.368;14.658;2022-09-14T10:50:24;99909.76;;;19.53;56.17
22572;BME280;11452;53.368;14.658;2022-09-14T10:55:45;99906.54;;;19.54;55.21
22572;BME280;11452;53.368;14.658;2022-09-14T11:01:00;99909.12;;;19.67;55.21
22572;BME280;11452;53.368;14.658;2022-09-14T11:11:45;99912.53;;;19.74;54.15
22572;BME280;11452;53.368;14.658;2022-09-14T11:22:17;99905.46;;;19.93;52.38
22572;BME280;11452;53.368;14.658;2022-09-14T11:38:09;99909.27;;;20.53;52.97
22572;BME280;11452;53.368;14.658;2022-09-14T11:43:18;99898.86;;;20.81;51.58
22572;BME280;11452;53.368;14.658;2022-09-14T11:53:39;99885.38;;;21.20;51.29
22572;BME280;11452;53.368;14.658;2022-09-14T11:58:45;99881.80;;;21.23;50.35
22572;BME280;11452;53.368;14.658;2022-09-14T12:04:05;99891.63;;;21.16;50.00
22572;BME280;11452;53.368;14.658;2022-09-14T12:14:35;99889.22;;;20.70;48.05
22572;BME280;11452;53.368;14.658;2022-09-14T12:19:44;99889.08;;;20.59;49.26
22572;BME280;11452;53.368;14.658;2022-09-14T12:25:13;99891.95;;;20.54;49.07
22572;BME280;11452;53.368;14.658;2022-09-14T12:35:45;99904.47;;;20.83;48.85
22572;BME280;11452;53.368;14.658;2022-09-14T12:40:51;99888.50;;;20.80;50.17
22572;BME280;11452;53.368;14.658;2022-09-14T13:07:44;99894.84;;;20.48;48.42
22572;BME280;11452;53.368;14.658;2022-09-14T13:12:50;99916.56;;;20.48;48.28
22572;BME280;11452;53.368;14.658;2022-09-14T13:23:29;99899.09;;;20.55;48.55
22572;BME280;11452;53.368;14.658;2022-09-14T13:28:36;99889.22;;;20.62;48.80
22572;BME280;11452;53.368;14.658;2022-09-14T13:33:52;99894.98;;;20.71;48.74
22572;BME280;11452;53.368;14.658;2022-09-14T13:38:59;99894.81;;;20.64;48.67
22572;BME280;11452;53.368;14.658;2022-09-14T13:44:06;99874.65;;;20.55;49.29
22572;BME280;11452;53.368;14.658;2022-09-14T13:49:12;99869.92;;;20.41;48.69
22572;BME280;11452;53.368;14.658;2022-09-14T13:59:29;99848.48;;;20.62;48.97
22572;BME280;11452;53.368;14.658;2022-09-14T14:04:37;99842.58;;;20.58;48.45
22572;BME280;11452;53.368;14.658;2022-09-14T14:09:54;99837.31;;;20.49;49.12
22572;BME280;11452;53.368;14.658;2022-09-14T14:15:06;99837.48;;;20.47;49.21
22572;BME280;11452;53.368;14.658;2022-09-14T14:20:34;99834.09;;;20.45;48.94
22572;BME280;11452;53.368;14.658;2022-09-14T14:25:45;99826.96;;;20.36;49.30
22572;BME280;11452;53.368;14.658;2022-09-14T14:30:52;99820.17;;;20.24;49.65
22572;BME280;11452;53.368;14.658;2022-09-14T14:35:58;99821.03;;;20.12;49.29
22572;BME280;11452;53.368;14.658;2022-09-14T14:41:05;99807.65;;;19.98;50.12
22572;BME280;11452;53.368;14.658;2022-09-14T14:46:12;99795.11;;;20.01;50.29
22572;BME280;11452;53.368;14.658;2022-09-14T14:51:19;99802.54;;;20.08;50.62
22572;BME280;11452;53.368;14.658;2022-09-14T14:56:24;99803.90;;;20.08;50.60
22572;BME280;11452;53.368;14.658;2022-09-14T15:01:31;99814.59;;;19.93;50.12
22572;BME280;11452;53.368;14.658;2022-09-14T15:06:37;99817.97;;;19.91;50.80
22572;BME280;11452;53.368;14.658;2022-09-14T15:11:43;99810.17;;;19.88;50.69
22572;BME280;11452;53.368;14.658;2022-09-14T15:16:49;99806.79;;;19.94;51.05
22572;BME280;11452;53.368;14.658;2022-09-14T15:21:57;99804.41;;;19.91;51.30
22572;BME280;11452;53.368;14.658;2022-09-14T15:27:04;99792.70;;;19.86;51.22
22572;BME280;11452;53.368;14.658;2022-09-14T15:32:10;99794.59;;;19.65;51.72
22572;BME280;11452;53.368;14.658;2022-09-14T15:37:15;99795.41;;;19.70;52.18
22572;BME280;11452;53.368;14.658;2022-09-14T15:42:21;99794.06;;;19.62;51.91
22572;BME280;11452;53.368;14.658;2022-09-14T15:47:27;99785.56;;;19.53;52.46
22572;BME280;11452;53.368;14.658;2022-09-14T15:52:38;99778.63;;;19.54;52.68
22572;BME280;11452;53.368;14.658;2022-09-14T15:57:43;99774.89;;;19.51;52.52
22572;BME280;11452;53.368;14.658;2022-09-14T16:02:49;99776.75;;;19.51;52.61
22572;BME280;11452;53.368;14.658;2022-09-14T16:07:55;99773.88;;;19.52;52.92
22572;BME280;11452;53.368;14.658;2022-09-14T16:13:01;99771.69;;;19.56;53.05
22572;BME280;11452;53.368;14.658;2022-09-14T16:18:07;99778.23;;;19.49;53.06
22572;BME280;11452;53.368;14.658;2022-09-14T16:23:12;99776.72;;;19.43;53.25
22572;BME280;11452;53.368;14.658;2022-09-14T16:28:18;99770.78;;;19.39;53.58
22572;BME280;11452;53.368;14.658;2022-09-14T16:33:23;99772.13;;;19.35;53.55
22572;BME280;11452;53.368;14.658;2022-09-14T16:38:29;99770.42;;;19.34;53.95
22572;BME280;11452;53.368;14.658;2022-09-14T16:43:36;99774.31;;;19.31;54.10
22572;BME280;11452;53.368;14.658;2022-09-14T16:48:43;99768.22;;;19.25;54.17
22572;BME280;11452;53.368;14.658;2022-09-14T16:53:50;99758.34;;;19.12;54.53
22572;BME280;11452;53.368;14.658;2022-09-14T16:58:57;99767.17;;;19.10;54.67
22572;BME280;11452;53.368;14.658;2022-09-14T17:04:07;99764.12;;;19.09;55.17
22572;BME280;11452;53.368;14.658;2022-09-14T17:09:23;99765.98;;;19.09;55.32
22572;BME280;11452;53.368;14.658;2022-09-14T17:14:31;99770.88;;;19.05;55.52
22572;BME280;11452;53.368;14.658;2022-09-14T17:19:37;99764.42;;;19.02;55.73
22572;BME280;11452;53.368;14.658;2022-09-14T17:24:44;99760.50;;;18.96;55.97
22572;BME280;11452;53.368;14.658;2022-09-14T17:29:51;99764.89;;;18.93;55.96
22572;BME280;11452;53.368;14.658;2022-09-14T17:34:57;99758.80;;;18.87;56.09
22572;BME280;11452;53.368;14.658;2022-09-14T17:40:03;99753.84;;;18.79;56.19
22572;BME280;11452;53.368;14.658;2022-09-14T17:45:10;99759.73;;;18.74;56.38
22572;BME280;11452;53.368;14.658;2022-09-14T17:50:16;99761.76;;;18.68;56.56
22572;BME280;11452;53.368;14.658;2022-09-14T17:55:23;99754.44;;;18.60;56.67
22572;BME280;11452;53.368;14.658;2022-09-14T18:00:30;99762.84;;;18.57;56.83
22572;BME280;11452;53.368;14.658;2022-09-14T18:05:36;99757.06;;;18.48;57.22
22572;BME280;11452;53.368;14.658;2022-09-14T18:10:41;99752.84;;;18.50;57.33
22572;BME280;11452;53.368;14.658;2022-09-14T18:15:47;99751.64;;;18.48;57.59
22572;BME280;11452;53.368;14.658;2022-09-14T18:20:57;99751.64;;;18.48;57.71
22572;BME280;11452;53.368;14.658;2022-09-14T18:26:05;99741.51;;;18.50;57.92
22572;BME280;11452;53.368;14.658;2022-09-14T18:31:13;99745.38;;;18.48;57.91
22572;BME280;11452;53.368;14.658;2022-09-14T18:36:20;99747.40;;;18.46;58.12
22572;BME280;11452;53.368;14.658;2022-09-14T18:41:27;99737.90;;;18.42;58.15
22572;BME280;11452;53.368;14.658;2022-09-14T18:46:35;99737.37;;;18.38;58.62
22572;BME280;11452;53.368;14.658;2022-09-14T18:51:42;99743.98;;;18.36;58.54
22572;BME280;11452;53.368;14.658;2022-09-14T18:56:47;99744.27;;;18.28;58.72
22572;BME280;11452;53.368;14.658;2022-09-14T19:01:53;99738.82;;;18.24;59.21
22572;BME280;11452;53.368;14.658;2022-09-14T19:06:59;99734.82;;;18.62;58.58
22572;BME280;11452;53.368;14.658;2022-09-14T19:12:05;99737.56;;;18.37;59.18
22572;BME280;11452;53.368;14.658;2022-09-14T19:17:11;99744.27;;;18.28;59.37
22572;BME280;11452;53.368;14.658;2022-09-14T19:22:16;99735.64;;;18.29;59.57
22572;BME280;11452;53.368;14.658;2022-09-14T19:27:22;99739.48;;;18.22;59.45
22572;BME280;11452;53.368;14.658;2022-09-14T19:32:28;99732.53;;;18.16;59.99
22572;BME280;11452;53.368;14.658;2022-09-14T19:37:33;99729.32;;;18.16;59.89
22572;BME280;11452;53.368;14.658;2022-09-14T19:42:39;99725.95;;;18.18;60.16
22572;BME280;11452;53.368;14.658;2022-09-14T19:47:44;99725.58;;;18.13;60.08
22572;BME280;11452;53.368;14.658;2022-09-14T19:52:50;99728.59;;;18.10;60.41
22572;BME280;11452;53.368;14.658;2022-09-14T19:57:56;99726.86;;;18.05;60.45
22572;BME280;11452;53.368;14.658;2022-09-14T20:03:02;99724.98;;;18.02;60.72
22572;BME280;11452;53.368;14.658;2022-09-14T20:08:08;99727.30;;;17.92;60.96
22572;BME280;11452;53.368;14.658;2022-09-14T20:13:13;99723.59;;;17.93;61.43
22572;BME280;11452;53.368;14.658;2022-09-14T20:18:18;99722.73;;;17.93;61.35
22572;BME280;11452;53.368;14.658;2022-09-14T20:23:24;99714.47;;;17.94;61.60
22572;BME280;11452;53.368;14.658;2022-09-14T20:28:30;99720.16;;;17.87;61.72
22572;BME280;11452;53.368;14.658;2022-09-14T20:33:38;99712.23;;;17.90;61.96
22572;BME280;11452;53.368;14.658;2022-09-14T20:38:46;99716.80;;;17.89;62.22
22572;BME280;11452;53.368;14.658;2022-09-14T20:43:54;99709.72;;;17.92;62.25
22572;BME280;11452;53.368;14.658;2022-09-14T20:49:00;99702.61;;;17.91;62.38
22572;BME280;11452;53.368;14.658;2022-09-14T20:54:07;99706.02;;;17.93;62.44
22572;BME280;11452;53.368;14.658;2022-09-14T20:59:16;99703.12;;;17.91;62.67
22572;BME280;11452;53.368;14.658;2022-09-14T21:04:23;99692.99;;;17.93;62.62
22572;BME280;11452;53.368;14.658;2022-09-14T21:09:29;99689.09;;;17.91;62.67
22572;BME280;11452;53.368;14.658;2022-09-14T21:14:35;99694.81;;;17.88;62.72
22572;BME280;11452;53.368;14.658;2022-09-14T21:19:41;99692.96;;;17.89;62.90
22572;BME280;11452;53.368;14.658;2022-09-14T21:24:46;99690.06;;;17.86;62.78
22572;BME280;11452;53.368;14.658;2022-09-14T21:29:52;99683.81;;;17.86;62.90
22572;BME280;11452;53.368;14.658;2022-09-14T21:34:58;99686.02;;;17.86;62.94
22572;BME280;11452;53.368;14.658;2022-09-14T21:40:04;99685.31;;;17.84;63.08
22572;BME280;11452;53.368;14.658;2022-09-14T21:45:10;99675.86;;;17.84;63.07
22572;BME280;11452;53.368;14.658;2022-09-14T21:50:16;99671.61;;;17.78;63.23
22572;BME280;11452;53.368;14.658;2022-09-14T21:55:21;99678.52;;;17.76;63.20
22572;BME280;11452;53.368;14.658;2022-09-14T22:00:27;99681.19;;;17.72;63.41
22572;BME280;11452;53.368;14.658;2022-09-14T22:05:34;99678.45;;;17.68;63.71
22572;BME280;11452;53.368;14.658;2022-09-14T22:10:39;99677.41;;;17.65;63.80
22572;BME280;11452;53.368;14.658;2022-09-14T22:15:45;99680.96;;;17.65;64.12
22572;BME280;11452;53.368;14.658;2022-09-14T22:21:01;99675.91;;;17.67;64.06
22572;BME280;11452;53.368;14.658;2022-09-14T22:26:09;99668.58;;;17.63;64.22
22572;BME280;11452;53.368;14.658;2022-09-14T22:31:17;99665.87;;;17.59;64.41
22572;BME280;11452;53.368;14.658;2022-09-14T22:36:23;99667.03;;;17.56;64.58
22572;BME280;11452;53.368;14.658;2022-09-14T22:41:29;99669.03;;;17.54;64.71
22572;BME280;11452;53.368;14.658;2022-09-14T22:46:35;99670.04;;;17.53;64.75
22572;BME280;11452;53.368;14.658;2022-09-14T22:51:40;99666.48;;;17.53;65.10
22572;BME280;11452;53.368;14.658;2022-09-14T22:56:46;99657.84;;;17.49;65.10
22572;BME280;11452;53.368;14.658;2022-09-14T23:01:51;99671.16;;;17.47;65.33
22572;BME280;11452;53.368;14.658;2022-09-14T23:06:58;99666.26;;;17.46;65.62
22572;BME280;11452;53.368;14.658;2022-09-14T23:12:04;99661.34;;;17.42;65.68
22572;BME280;11452;53.368;14.658;2022-09-14T23:17:09;99669.38;;;17.34;65.63
22572;BME280;11452;53.368;14.658;2022-09-14T23:22:15;99666.52;;;17.35;66.01
22572;BME280;11452;53.368;14.658;2022-09-14T23:27:20;99660.77;;;17.34;65.97
22572;BME280;11452;53.368;14.658;2022-09-14T23:32:26;99660.27;;;17.35;66.06
22572;BME280;11452;53.368;14.658;2022-09-14T23:37:32;99649.77;;;17.31;66.18
22572;BME280;11452;53.368;14.658;2022-09-14T23:42:37;99642.81;;;17.25;66.27
22572;BME280;11452;53.368;14.658;2022-09-14T23:47:43;99635.86;;;17.22;66.33
22572;BME280;11452;53.368;14.658;2022-09-14T23:52:49;99629.92;;;17.19;66.62
22572;BME280;11452;53.368;14.658;2022-09-14T23:57:54;99624.67;;;17.17;66.72
